Time;durP1;ratioP1;P1;durP2;ratioP2;P2;SDS_P1;SDS_P2;PMS_P1;PMS_P2;Temp;Humidity;BMP_temperature;BMP_pressure;BME280_temperature;BME280_humidity;BME280_pressure;Samples;Min_cycle;Max_cycle;Signal;HPM_P1;HPM_P2
2022/11/19 00:01:09;;;;;;;8.15;0.70;;;;;;;6.61;100.00;100291.72;5034875;28;20120;-60
2022/11/19 00:03:36;;;;;;;2.20;0.40;;;;;;;6.62;100.00;100290.72;5036349;28;20036;-61
2022/11/19 00:06:08;;;;;;;16.20;2.28;;;;;;;6.63;100.00;100294.16;5037204;28;20056;-61
2022/11/19 00:08:34;;;;;;;2.47;0.45;;;;;;;6.58;100.00;100293.84;5036298;28;20476;-60
2022/11/19 00:11:07;;;;;;;4.32;0.95;;;;;;;6.55;100.00;100300.28;5033776;28;20025;-60
2022/11/19 00:13:32;;;;;;;3.17;0.30;;;;;;;6.43;100.00;100297.22;5037839;28;21104;-58
2022/11/19 00:16:15;;;;;;;4.32;1.35;;;;;;;6.36;100.00;100300.69;5032306;28;20029;-60
2022/11/19 00:18:41;;;;;;;8.90;0.90;;;;;;;6.30;100.00;100304.81;5034242;28;20079;-61
2022/11/19 00:21:09;;;;;;;2.75;0.20;;;;;;;6.28;100.00;100307.59;5038589;28;20402;-60
2022/11/19 00:23:35;;;;;;;7.35;0.30;;;;;;;6.26;100.00;100311.38;5035322;28;20026;-60
2022/11/19 00:26:04;;;;;;;0.98;0.85;;;;;;;6.26;100.00;100314.84;5036788;28;20112;-61
2022/11/19 00:28:30;;;;;;;3.30;0.88;;;;;;;6.20;100.00;100317.34;5035496;28;20056;-60
2022/11/19 00:31:00;;;;;;;3.72;0.28;;;;;;;6.27;100.00;100320.91;5041280;28;20434;-60
2022/11/19 00:33:25;;;;;;;5.20;1.58;;;;;;;6.27;100.00;100313.00;5028143;28;20064;-59
2022/11/19 00:35:54;;;;;;;1.90;0.25;;;;;;;6.23;100.00;100320.44;5040005;28;20051;-60
2022/11/19 00:38:20;;;;;;;2.67;0.85;;;;;;;6.14;100.00;100323.25;5042657;28;20022;-61
2022/11/19 00:40:45;;;;;;;2.22;1.02;;;;;;;6.07;100.00;100333.63;5036314;28;20047;-61
2022/11/19 00:45:54;;;;;;;1.85;0.93;;;;;;;5.99;100.00;100334.44;5042539;28;20040;-60
2022/11/19 00:48:20;;;;;;;4.18;0.93;;;;;;;6.00;100.00;100333.44;5041897;28;20032;-61
2022/11/19 00:50:45;;;;;;;2.40;0.35;;;;;;;5.99;100.00;100330.97;5036134;28;20028;-61
2022/11/19 00:53:10;;;;;;;4.40;0.22;;;;;;;6.03;100.00;100333.13;5040351;28;20386;-61
2022/11/19 00:55:36;;;;;;;7.47;1.45;;;;;;;6.00;100.00;100330.00;5033119;28;20049;-60
2022/11/19 00:58:02;;;;;;;1.48;0.75;;;;;;;5.94;100.00;100333.28;5038545;28;20025;-60
2022/11/19 01:00:27;;;;;;;1.58;0.55;;;;;;;5.85;100.00;100322.72;5045349;28;20363;-61
2022/11/19 01:02:52;;;;;;;6.15;0.30;;;;;;;5.77;100.00;100325.34;5039264;28;20469;-61
2022/11/19 01:05:18;;;;;;;2.33;0.47;;;;;;;5.70;100.00;100332.25;5041386;28;20115;-61
2022/11/19 01:07:43;;;;;;;3.97;0.98;;;;;;;5.66;100.00;100331.75;5041324;28;20048;-61
2022/11/19 01:10:08;;;;;;;5.22;0.20;;;;;;;5.61;100.00;100335.88;5041250;28;20394;-59
2022/11/19 01:13:33;;;;;;;8.35;0.30;;;;;;;5.51;100.00;100332.56;5042639;28;20122;-61
2022/11/19 01:15:19;;;;;;;4.15;0.10;;;;;;;5.44;100.00;100335.00;5042775;28;20099;-60
2022/11/19 01:17:44;;;;;;;8.35;0.90;;;;;;;5.46;100.00;100333.03;5052428;28;20025;-61
2022/11/19 01:20:10;;;;;;;3.05;0.60;;;;;;;5.42;100.00;100339.59;5047916;28;20989;-59
2022/11/19 01:22:35;;;;;;;5.47;1.38;;;;;;;5.47;100.00;100353.06;5036339;28;20026;-61
2022/11/19 01:25:01;;;;;;;5.47;1.13;;;;;;;5.58;100.00;100349.34;5049964;28;20037;-60
2022/11/19 01:27:26;;;;;;;2.60;0.40;;;;;;;5.63;100.00;100358.38;5034163;28;20047;-61
2022/11/19 01:29:51;;;;;;;0.55;0.45;;;;;;;5.75;100.00;100356.25;5050510;28;20048;-60
2022/11/19 01:32:17;;;;;;;2.22;0.30;;;;;;;5.82;100.00;100353.81;5047474;28;20064;-61
2022/11/19 01:34:42;;;;;;;4.15;1.20;;;;;;;5.89;100.00;100355.63;5051349;28;20359;-60
2022/11/19 01:37:07;;;;;;;3.13;0.43;;;;;;;5.90;100.00;100359.88;5047499;28;20508;-61
2022/11/19 01:39:33;;;;;;;4.25;0.32;;;;;;;5.87;100.00;100360.22;5041907;28;20079;-59
2022/11/19 01:41:58;;;;;;;4.90;0.63;;;;;;;5.86;100.00;100360.38;5041199;28;20185;-61
2022/11/19 01:45:05;;;;;;;6.38;0.43;;;;;;;5.98;100.00;100360.91;5049481;28;20021;-61
2022/11/19 01:47:31;;;;;;;2.17;0.70;;;;;;;6.07;100.00;100360.75;5048584;28;20104;-61
2022/11/19 01:49:56;;;;;;;6.65;0.95;;;;;;;6.11;100.00;100355.97;5047394;28;20033;-61
2022/11/19 01:52:22;;;;;;;9.70;1.00;;;;;;;6.11;100.00;100362.06;5044617;28;20059;-60
2022/11/19 01:54:52;;;;;;;1.55;0.75;;;;;;;6.20;100.00;100359.47;5038890;28;20029;-59
2022/11/19 01:57:18;;;;;;;4.50;1.38;;;;;;;6.25;100.00;100362.41;5039718;28;20025;-60
2022/11/19 01:59:49;;;;;;;5.78;1.38;;;;;;;6.28;100.00;100372.59;5042472;28;20094;-60
2022/11/19 02:02:18;;;;;;;6.75;1.40;;;;;;;6.29;100.00;100368.97;5040175;28;20037;-61
2022/11/19 02:04:44;;;;;;;2.22;0.13;;;;;;;6.29;100.00;100368.97;5036380;28;20178;-59
2022/11/19 02:07:11;;;;;;;2.17;0.20;;;;;;;6.33;100.00;100368.50;5046412;28;20139;-61
2022/11/19 02:09:38;;;;;;;6.70;1.95;;;;;;;6.37;100.00;100368.16;5037987;28;20061;-61
2022/11/19 02:12:43;;;;;;;3.38;1.10;;;;;;;6.39;100.00;100374.91;5042908;28;20032;-60
2022/11/19 02:15:38;;;;;;;1.40;0.25;;;;;;;6.41;100.00;100386.09;5035426;28;20029;-60
2022/11/19 02:18:36;;;;;;;1.88;0.20;;;;;;;6.43;100.00;100381.50;5046521;28;20031;-61
2022/11/19 02:21:12;;;;;;;3.22;0.60;;;;;;;6.40;100.00;100387.09;5034980;28;20029;-61
2022/11/19 02:23:50;;;;;;;0.80;0.40;;;;;;;6.39;100.00;100387.25;5033967;28;20027;-60
2022/11/19 02:26:33;;;;;;;4.07;0.32;;;;;;;6.36;100.00;100388.41;5027960;28;20037;-60
2022/11/19 02:29:07;;;;;;;2.85;0.30;;;;;;;6.33;100.00;100391.38;5048180;28;20119;-60
2022/11/19 02:31:47;;;;;;;2.35;0.60;;;;;;;6.37;100.00;100391.84;5047256;28;20029;-60
2022/11/19 02:34:20;;;;;;;4.57;0.63;;;;;;;6.34;100.00;100395.63;5040447;28;20032;-61
2022/11/19 02:37:11;;;;;;;3.78;0.30;;;;;;;6.33;100.00;100404.53;5045245;28;20382;-60
2022/11/19 02:39:39;;;;;;;4.25;0.55;;;;;;;6.30;100.00;100397.78;5042602;28;20155;-60
2022/11/19 02:42:21;;;;;;;4.00;0.55;;;;;;;6.35;100.00;100402.56;5046236;28;20043;-60
2022/11/19 02:44:58;;;;;;;4.45;0.38;;;;;;;6.34;100.00;100398.28;5043088;28;20040;-60
2022/11/19 02:47:35;;;;;;;4.53;0.85;;;;;;;6.33;100.00;100396.63;5034887;28;20060;-62
2022/11/19 02:50:09;;;;;;;3.67;0.88;;;;;;;6.30;100.00;100396.97;5044385;28;20048;-61
2022/11/19 02:52:37;;;;;;;6.97;1.05;;;;;;;6.28;100.00;100394.50;5043995;28;20029;-62
2022/11/19 02:55:03;;;;;;;7.22;0.57;;;;;;;6.28;100.00;100391.84;5040423;28;20033;-61
2022/11/19 02:57:28;;;;;;;3.95;0.35;;;;;;;6.27;100.00;100387.59;5044242;28;20085;-58
2022/11/19 03:05:42;;;;;;;5.45;0.63;;;;;;;6.25;100.00;100384.28;5045627;28;20039;-61
2022/11/19 03:08:08;;;;;;;3.88;0.35;;;;;;;6.24;100.00;100387.09;5044331;28;20043;-61
2022/11/19 03:10:50;;;;;;;1.65;0.25;;;;;;;6.30;100.00;100379.34;5042685;28;20029;-60
2022/11/19 03:16:42;;;;;;;1.85;0.40;;;;;;;6.32;100.00;100387.06;5043065;28;20063;-61
2022/11/19 03:19:23;;;;;;;11.73;0.68;;;;;;;6.30;100.00;100387.25;5048269;28;20462;-60
2022/11/19 03:21:55;;;;;;;2.13;0.82;;;;;;;6.29;100.00;100384.78;5041459;28;20032;-60
2022/11/19 03:24:34;;;;;;;3.38;0.98;;;;;;;6.26;100.00;100383.28;5035804;28;20033;-61
2022/11/19 03:27:16;;;;;;;5.57;0.43;;;;;;;6.25;100.00;100383.47;5046183;28;20040;-60
2022/11/19 03:29:48;;;;;;;3.05;0.60;;;;;;;6.26;100.00;100401.72;5040661;28;20021;-61
2022/11/19 03:32:18;;;;;;;4.40;0.77;;;;;;;6.29;100.00;100401.38;5047222;28;20402;-61
2022/11/19 03:34:49;;;;;;;2.78;0.60;;;;;;;6.28;100.00;100399.75;5041247;28;20032;-60
2022/11/19 03:37:18;;;;;;;2.38;0.82;;;;;;;6.27;100.00;100398.13;5044253;28;20036;-61
2022/11/19 03:39:45;;;;;;;8.77;0.45;;;;;;;6.23;100.00;100396.78;5037046;28;20061;-61
2022/11/19 03:42:13;;;;;;;3.20;0.85;;;;;;;6.22;100.00;100395.16;5047008;28;20151;-60
2022/11/19 03:44:43;;;;;;;5.25;0.17;;;;;;;6.26;100.00;100391.19;5033174;28;20474;-58
2022/11/19 03:47:14;;;;;;;7.30;0.20;;;;;;;6.23;100.00;100393.34;5039820;28;20061;-60
2022/11/19 03:49:44;;;;;;;3.92;0.20;;;;;;;6.15;100.00;100388.09;5048418;28;20478;-61
2022/11/19 03:52:14;;;;;;;6.55;1.35;;;;;;;6.01;100.00;100387.72;5042356;28;20044;-61
2022/11/19 03:54:40;;;;;;;1.73;0.32;;;;;;;5.93;100.00;100386.88;5041226;28;20038;-61
2022/11/19 03:57:08;;;;;;;2.00;0.10;;;;;;;5.93;100.00;100389.50;5043710;28;20029;-59
2022/11/19 03:59:34;;;;;;;1.67;0.38;;;;;;;6.00;100.00;100395.81;5043441;28;20513;-61
2022/11/19 04:02:09;;;;;;;6.93;1.75;;;;;;;6.03;100.00;100398.09;5046459;28;20041;-57
2022/11/19 04:04:38;;;;;;;0.95;0.32;;;;;;;6.11;100.00;100408.63;5046570;28;20029;-60
2022/11/19 04:07:20;;;;;;;7.30;1.20;;;;;;;6.19;100.00;100410.44;5051483;28;20114;-61
2022/11/19 04:09:47;;;;;;;1.85;0.50;;;;;;;6.24;100.00;100408.16;5044306;28;20070;-62
2022/11/19 04:12:23;;;;;;;6.03;0.20;;;;;;;6.26;100.00;100407.00;5042607;28;20109;-61
2022/11/19 04:14:49;;;;;;;3.70;0.47;;;;;;;6.30;100.00;100413.59;5047392;28;20021;-61
2022/11/19 04:17:16;;;;;;;4.22;0.52;;;;;;;6.37;100.00;100402.38;5054688;28;20029;-61
2022/11/19 04:19:42;;;;;;;3.03;0.28;;;;;;;6.38;100.00;100406.69;5049685;28;20067;-60
2022/11/19 04:22:08;;;;;;;6.50;0.90;;;;;;;6.32;100.00;100411.63;5045718;28;20026;-60
2022/11/19 04:24:34;;;;;;;2.58;0.22;;;;;;;6.16;100.00;100406.34;5048903;28;20062;-60
2022/11/19 04:26:59;;;;;;;3.38;0.32;;;;;;;6.01;100.00;100414.03;5057633;28;20333;-61
2022/11/19 04:29:24;;;;;;;2.58;1.38;;;;;;;5.95;100.00;100419.97;5043945;28;20040;-61
2022/11/19 04:31:50;;;;;;;3.70;0.43;;;;;;;5.95;100.00;100424.41;5043822;28;20068;-60
2022/11/19 04:34:15;;;;;;;2.85;0.32;;;;;;;5.94;100.00;100428.00;5047545;28;20079;-60
2022/11/19 04:36:41;;;;;;;6.10;1.10;;;;;;;5.96;100.00;100433.94;5037835;28;20494;-61
2022/11/19 04:39:07;;;;;;;7.47;0.55;;;;;;;6.01;100.00;100443.00;5039581;28;20056;-60
2022/11/19 04:41:33;;;;;;;0.75;0.10;;;;;;;6.06;100.00;100439.88;5045137;28;20042;-61
2022/11/19 04:43:59;;;;;;;1.48;0.30;;;;;;;6.09;100.00;100443.03;5048837;28;20048;-59
2022/11/19 04:46:24;;;;;;;2.47;0.52;;;;;;;6.14;100.00;100441.69;5049450;28;20075;-60
2022/11/19 04:48:50;;;;;;;4.28;0.73;;;;;;;6.15;100.00;100435.47;5046083;28;20029;-59
2022/11/19 04:51:15;;;;;;;5.13;0.45;;;;;;;6.18;100.00;100443.03;5033468;28;20101;-60
2022/11/19 04:53:40;;;;;;;0.50;0.30;;;;;;;6.20;100.00;100439.25;5045834;28;20071;-60
2022/11/19 04:56:06;;;;;;;3.38;0.38;;;;;;;6.20;100.00;100436.63;5036626;28;20064;-60
2022/11/19 04:58:32;;;;;;;3.33;0.30;;;;;;;6.22;100.00;100439.91;5045444;28;20107;-60
2022/11/19 05:00:57;;;;;;;1.08;0.75;;;;;;;6.21;100.00;100435.63;5045416;28;20029;-60
2022/11/19 05:03:23;;;;;;;4.35;0.17;;;;;;;6.23;100.00;100432.84;5035394;28;20054;-61
2022/11/19 05:05:48;;;;;;;2.38;0.43;;;;;;;6.25;100.00;100444.84;5042978;28;20135;-60
2022/11/19 05:08:14;;;;;;;0.63;0.20;;;;;;;6.33;100.00;100442.22;5049470;28;20033;-61
2022/11/19 05:10:39;;;;;;;4.45;1.58;;;;;;;6.34;100.00;100443.84;5043401;28;20547;-60
2022/11/19 05:13:04;;;;;;;3.63;0.40;;;;;;;6.33;100.00;100434.31;5046356;28;20032;-60
2022/11/19 05:15:30;;;;;;;0.90;0.52;;;;;;;6.29;100.00;100440.88;5041589;28;20041;-62
2022/11/19 05:17:55;;;;;;;2.10;0.50;;;;;;;6.27;100.00;100440.25;5052466;28;20095;-61
2022/11/19 05:20:20;;;;;;;2.42;0.32;;;;;;;6.26;100.00;100449.13;5034152;28;20467;-61
2022/11/19 05:22:46;;;;;;;9.05;0.20;;;;;;;6.29;100.00;100451.41;5043861;28;20040;-60
2022/11/19 05:25:11;;;;;;;2.40;0.35;;;;;;;6.29;100.00;100458.50;5047179;28;20021;-60
2022/11/19 05:27:37;;;;;;;2.95;0.60;;;;;;;6.33;100.00;100460.66;5040004;28;20126;-61
2022/11/19 05:30:03;;;;;;;3.08;0.63;;;;;;;6.33;100.00;100460.66;5041303;28;20030;-60
2022/11/19 05:32:29;;;;;;;1.42;0.98;;;;;;;6.29;100.00;100469.84;5040220;28;20041;-60
2022/11/19 05:34:54;;;;;;;6.75;0.80;;;;;;;6.27;100.00;100466.59;5040593;28;20142;-61
2022/11/19 05:37:19;;;;;;;2.38;0.10;;;;;;;6.31;100.00;100470.53;5051086;28;20428;-60
2022/11/19 05:39:45;;;;;;;7.22;0.57;;;;;;;6.37;100.00;100468.22;5022840;28;20051;-60
2022/11/19 05:42:10;;;;;;;3.60;0.40;;;;;;;6.39;100.00;100471.53;5041118;28;20032;-61
2022/11/19 05:44:35;;;;;;;1.65;0.30;;;;;;;6.40;100.00;100476.63;5043622;28;20134;-61
2022/11/19 05:47:01;;;;;;;5.20;0.68;;;;;;;6.41;100.00;100477.47;5041115;28;20025;-60
2022/11/19 05:49:26;;;;;;;7.65;0.35;;;;;;;6.43;100.00;100476.31;5029411;28;20029;-61
2022/11/19 05:51:51;;;;;;;4.25;0.68;;;;;;;6.40;100.00;100479.28;5031375;28;20135;-60
2022/11/19 05:54:17;;;;;;;11.23;0.93;;;;;;;6.38;100.00;100488.31;5046213;28;20025;-60
2022/11/19 05:56:42;;;;;;;2.92;0.63;;;;;;;6.39;100.00;100492.59;5035901;28;20051;-61
2022/11/19 05:59:08;;;;;;;2.28;0.20;;;;;;;6.43;100.00;100486.00;5041277;28;20032;-61
2022/11/19 06:01:33;;;;;;;8.30;1.48;;;;;;;6.44;100.00;100482.38;5040168;28;20032;-61
2022/11/19 06:03:58;;;;;;;3.00;0.40;;;;;;;6.43;100.00;100478.94;5040455;28;20036;-60
2022/11/19 06:06:24;;;;;;;2.53;0.30;;;;;;;6.43;100.00;100492.09;5040546;28;20048;-59
2022/11/19 06:08:50;;;;;;;2.42;0.68;;;;;;;6.44;100.00;100490.28;5044918;28;20111;-59
2022/11/19 06:14:00;;;;;;;1.40;0.38;;;;;;;6.44;100.00;100491.09;5035956;28;20603;-61
2022/11/19 06:16:26;;;;;;;1.52;0.70;;;;;;;6.41;100.00;100496.72;5049490;28;20059;-61
2022/11/19 06:18:52;;;;;;;4.00;0.10;;;;;;;6.42;100.00;100495.72;5045249;28;20427;-59
2022/11/19 06:21:17;;;;;;;5.50;0.10;;;;;;;6.40;100.00;100487.19;5042989;28;20036;-59
2022/11/19 06:23:42;;;;;;;5.05;0.15;;;;;;;6.39;100.00;100495.22;5043771;28;20083;-61
2022/11/19 06:26:08;;;;;;;4.90;0.10;;;;;;;6.40;100.00;100499.50;5041548;28;20079;-61
2022/11/19 06:28:34;;;;;;;3.88;0.63;;;;;;;6.38;100.00;100497.03;5038478;28;20029;-60
2022/11/19 06:30:59;;;;;;;4.85;1.67;;;;;;;6.35;100.00;100500.00;5038037;28;20064;-60
2022/11/19 06:33:24;;;;;;;6.40;1.08;;;;;;;6.35;100.00;100502.63;5045405;28;20061;-59
2022/11/19 06:35:50;;;;;;;5.63;1.60;;;;;;;6.37;100.00;100499.81;5040723;28;20056;-59
2022/11/19 06:38:16;;;;;;;5.15;1.23;;;;;;;6.36;100.00;100509.53;5036934;28;20021;-60
2022/11/19 06:40:44;;;;;;;1.75;0.30;;;;;;;6.36;100.00;100506.91;5035404;28;20024;-61
2022/11/19 06:43:09;;;;;;;0.77;0.10;;;;;;;6.36;100.00;100511.34;5041110;28;20403;-61
2022/11/19 06:45:34;;;;;;;6.80;0.50;;;;;;;6.36;100.00;100506.09;5045031;28;20033;-58
2022/11/19 06:48:00;;;;;;;4.93;1.45;;;;;;;6.37;100.00;100513.81;5039999;28;20383;-60
2022/11/19 06:50:25;;;;;;;0.95;0.55;;;;;;;6.39;100.00;100516.28;5039566;28;20037;-61
2022/11/19 06:52:50;;;;;;;18.02;1.63;;;;;;;6.41;100.00;100511.69;5032120;28;20672;-60
2022/11/19 06:55:16;;;;;;;2.53;0.50;;;;;;;6.39;100.00;100514.47;5045792;28;20467;-59
2022/11/19 06:57:41;;;;;;;3.90;1.00;;;;;;;6.38;100.00;100498.84;5039913;28;20056;-61
2022/11/19 07:00:07;;;;;;;2.30;1.30;;;;;;;6.39;100.00;100503.94;5038106;28;20028;-58
2022/11/19 07:02:32;;;;;;;3.92;1.42;;;;;;;6.39;100.00;100516.28;5037536;28;20033;-60
2022/11/19 07:04:58;;;;;;;2.50;0.17;;;;;;;6.36;100.00;100517.44;5039987;28;20030;-61
2022/11/19 07:07:23;;;;;;;7.38;1.05;;;;;;;6.38;100.00;100525.19;5039818;28;20048;-60
2022/11/19 07:09:48;;;;;;;4.60;0.88;;;;;;;6.39;100.00;100537.38;5052597;28;20028;-61
2022/11/19 07:12:14;;;;;;;8.75;0.68;;;;;;;6.41;100.00;100532.75;5038107;28;20140;-61
2022/11/19 07:14:39;;;;;;;2.08;0.38;;;;;;;6.43;100.00;100528.13;5047648;28;20040;-59
2022/11/19 07:17:05;;;;;;;1.08;0.38;;;;;;;6.43;100.00;100530.78;5037614;28;20064;-62
2022/11/19 07:19:30;;;;;;;3.83;0.98;;;;;;;6.45;100.00;100531.44;5041899;28;20040;-60
2022/11/19 07:21:56;;;;;;;2.97;0.75;;;;;;;6.47;100.00;100532.09;5021387;28;20033;-62
2022/11/19 07:24:21;;;;;;;8.40;1.63;;;;;;;6.47;100.00;100537.38;5047651;28;20036;-61
2022/11/19 07:26:47;;;;;;;4.43;1.75;;;;;;;6.45;100.00;100541.97;5028051;28;20033;-59
2022/11/19 07:29:14;;;;;;;3.00;0.28;;;;;;;6.44;100.00;100535.06;5038391;28;20462;-60
2022/11/19 07:31:39;;;;;;;5.22;1.23;;;;;;;6.47;100.00;100534.75;5035836;28;20029;-63
2022/11/19 07:34:09;;;;;;;6.88;0.68;;;;;;;6.48;100.00;100542.50;5037748;28;20071;-60
2022/11/19 07:36:35;;;;;;;6.72;0.93;;;;;;;6.48;100.00;100537.22;5042597;28;20056;-61
2022/11/19 07:39:00;;;;;;;2.35;1.20;;;;;;;6.46;100.00;100536.56;5040071;28;20037;-63
2022/11/19 07:44:20;;;;;;;3.13;0.98;;;;;;;6.50;100.00;100534.41;5029433;28;20634;-62
2022/11/19 07:46:46;;;;;;;16.17;0.63;;;;;;;6.48;100.00;100533.75;5033227;28;20341;-62
2022/11/19 07:49:11;;;;;;;3.15;0.32;;;;;;;6.47;100.00;100529.47;5037981;28;20509;-62
2022/11/19 07:51:37;;;;;;;6.13;0.90;;;;;;;6.46;100.00;100535.72;5040094;28;20423;-62
2022/11/19 07:54:02;;;;;;;4.32;0.20;;;;;;;6.47;100.00;100540.00;5036996;28;20021;-62
2022/11/19 07:56:27;;;;;;;4.20;0.13;;;;;;;6.49;100.00;100546.75;5040715;28;20117;-63
2022/11/19 07:58:53;;;;;;;2.50;1.23;;;;;;;6.52;100.00;100549.06;5030009;28;20212;-63
2022/11/19 08:01:22;;;;;;;3.72;0.80;;;;;;;6.57;100.00;100550.41;5039401;28;20024;-60
2022/11/19 08:03:49;;;;;;;6.90;0.20;;;;;;;6.58;100.00;100552.03;5033858;28;20029;-62
2022/11/19 08:06:16;;;;;;;1.55;0.63;;;;;;;6.59;100.00;100559.78;5034090;28;20045;-63
2022/11/19 08:08:43;;;;;;;4.75;1.75;;;;;;;6.61;100.00;100557.81;5044066;28;20024;-63
2022/11/19 08:11:10;;;;;;;1.13;0.57;;;;;;;6.63;100.00;100566.34;5034150;28;20069;-61
2022/11/19 08:13:36;;;;;;;5.43;0.50;;;;;;;6.63;100.00;100560.28;5033988;28;20029;-63
2022/11/19 08:16:03;;;;;;;4.13;0.45;;;;;;;6.66;100.00;100571.31;5036632;28;20040;-60
2022/11/19 08:18:30;;;;;;;4.15;0.52;;;;;;;6.68;100.00;100569.31;5032589;28;20035;-61
2022/11/19 08:21:01;;;;;;;4.30;0.77;;;;;;;6.69;100.00;100571.00;5040799;28;20013;-63
2022/11/19 08:23:26;;;;;;;4.15;0.90;;;;;;;6.72;100.00;100575.13;5047727;28;20026;-63
2022/11/19 08:25:51;;;;;;;3.15;0.63;;;;;;;6.76;100.00;100574.63;5036713;28;20458;-62
2022/11/19 08:28:17;;;;;;;8.70;2.28;;;;;;;6.80;100.00;100579.56;5032052;28;20040;-62
2022/11/19 08:30:44;;;;;;;4.15;1.08;;;;;;;6.83;100.00;100579.22;5040085;28;20159;-62
2022/11/19 08:33:09;;;;;;;2.33;0.10;;;;;;;6.86;100.00;100581.53;5041353;28;20094;-61
2022/11/19 08:35:35;;;;;;;2.95;0.65;;;;;;;6.88;100.00;100583.03;5046011;28;20542;-62
2022/11/19 08:38:00;;;;;;;2.47;0.28;;;;;;;6.91;100.00;100585.31;5029504;28;20052;-60
2022/11/19 08:40:26;;;;;;;2.25;0.52;;;;;;;6.91;100.00;100585.31;5039297;28;20037;-62
2022/11/19 08:43:00;;;;;;;3.55;0.15;;;;;;;6.92;100.00;100581.72;5037445;28;20303;-61
2022/11/19 08:45:37;;;;;;;2.75;0.45;;;;;;;6.97;100.00;100583.88;5023200;28;20037;-62
2022/11/19 08:48:05;;;;;;;2.13;0.50;;;;;;;7.02;100.00;100592.06;5033707;28;20136;-62
2022/11/19 08:50:31;;;;;;;0.77;0.40;;;;;;;7.04;100.00;100584.00;5044853;28;20033;-62
2022/11/19 08:52:59;;;;;;;2.28;0.90;;;;;;;7.07;100.00;100592.41;5049453;28;20027;-61
2022/11/19 08:55:25;;;;;;;7.15;0.43;;;;;;;7.08;100.00;100586.16;5041101;28;20032;-62
2022/11/19 08:57:51;;;;;;;1.38;0.73;;;;;;;7.13;100.00;100593.56;5044140;28;20494;-62
2022/11/19 09:00:19;;;;;;;5.07;1.05;;;;;;;7.15;100.00;100594.22;5036457;28;20374;-60
2022/11/19 09:02:45;;;;;;;6.63;0.50;;;;;;;7.16;100.00;100588.78;5045091;28;20106;-64
2022/11/19 09:05:10;;;;;;;2.78;0.25;;;;;;;7.17;100.00;100590.41;5045308;28;20036;-62
2022/11/19 09:07:36;;;;;;;7.68;0.38;;;;;;;7.21;100.00;100591.75;5050052;28;20045;-63
2022/11/19 09:10:01;;;;;;;1.80;0.68;;;;;;;7.23;100.00;100594.22;5054533;28;20025;-63
2022/11/19 09:12:29;;;;;;;4.40;0.50;;;;;;;7.27;100.00;100597.34;5042564;28;20135;-62
2022/11/19 09:14:54;;;;;;;4.53;0.95;;;;;;;7.30;100.00;100604.94;5037966;28;20159;-62
2022/11/19 09:17:19;;;;;;;2.28;0.10;;;;;;;7.32;100.00;100603.75;5039017;28;20609;-61
2022/11/19 09:19:45;;;;;;;4.60;0.30;;;;;;;7.34;100.00;100598.34;5047840;28;20094;-62
2022/11/19 09:22:10;;;;;;;1.85;0.28;;;;;;;7.37;100.00;100600.63;5039769;28;20489;-62
2022/11/19 09:24:35;;;;;;;4.15;0.60;;;;;;;7.39;100.00;100603.94;5048195;28;20395;-61
2022/11/19 09:27:01;;;;;;;3.25;0.45;;;;;;;7.41;100.00;100607.25;5044840;28;20568;-62
2022/11/19 09:29:26;;;;;;;4.53;0.55;;;;;;;7.41;100.00;100601.97;5042781;28;20036;-61
2022/11/19 09:31:52;;;;;;;4.68;0.40;;;;;;;7.41;100.00;100597.50;5044785;28;20029;-61
2022/11/19 09:34:17;;;;;;;7.90;0.60;;;;;;;7.45;100.00;100597.16;5044764;28;20421;-61
2022/11/19 09:36:43;;;;;;;7.63;0.30;;;;;;;7.46;100.00;100601.44;5042266;28;20394;-62
2022/11/19 09:39:09;;;;;;;5.80;1.25;;;;;;;7.51;100.00;100597.31;5039144;28;20024;-62
2022/11/19 09:42:01;;;;;;;2.78;0.20;;;;;;;7.56;100.00;100595.00;5045916;28;20036;-63
2022/11/19 09:45:07;;;;;;;3.63;2.00;;;;;;;7.64;100.00;100595.00;5037094;28;20543;-62
2022/11/19 09:47:48;;;;;;;9.77;0.45;;;;;;;7.71;100.00;100589.84;5036310;28;20049;-62
2022/11/19 09:50:15;;;;;;;4.47;0.47;;;;;;;7.79;100.00;100605.63;5044515;28;20032;-61
2022/11/19 09:53:04;;;;;;;4.35;0.30;;;;;;;7.92;100.00;100612.22;5044095;28;20025;-61
2022/11/19 09:55:35;;;;;;;4.88;2.08;;;;;;;7.95;100.00;100619.78;5042435;28;20493;-61
2022/11/19 09:58:03;;;;;;;2.40;0.32;;;;;;;7.96;100.00;100609.06;5041376;28;20029;-62
2022/11/19 10:00:30;;;;;;;0.77;0.30;;;;;;;7.93;100.00;100609.41;5042623;28;20056;-63
2022/11/19 10:02:57;;;;;;;3.17;0.28;;;;;;;7.95;100.00;100606.59;5045296;28;20456;-63
2022/11/19 10:06:01;;;;;;;7.13;0.40;;;;;;;7.95;100.00;100599.50;5040752;28;20060;-62
2022/11/19 10:08:32;;;;;;;5.53;0.28;;;;;;;7.99;100.00;100599.97;5044332;28;20036;-63
2022/11/19 10:11:18;;;;;;;3.00;0.40;;;;;;;7.97;100.00;100592.22;5047706;28;20140;-60
2022/11/19 10:14:02;;;;;;;3.20;0.35;;;;;;;8.02;100.00;100597.81;5048793;28;20033;-62
2022/11/19 10:16:38;;;;;;;4.05;0.30;;;;;;;8.01;100.00;100601.47;5045122;28;20033;-62
2022/11/19 10:19:33;;;;;;;1.25;0.25;;;;;;;8.04;100.00;100598.47;5038502;28;20025;-62
2022/11/19 10:22:21;;;;;;;3.03;0.20;;;;;;;8.12;100.00;100596.78;5045389;28;20033;-60
2022/11/19 10:25:26;;;;;;;3.58;0.50;;;;;;;8.13;100.00;100598.44;5041528;28;20053;-63
2022/11/19 10:27:56;;;;;;;5.40;0.68;;;;;;;8.15;100.00;100599.09;5039614;28;20060;-60
2022/11/19 10:30:24;;;;;;;8.20;1.60;;;;;;;8.27;100.00;100592.44;5027229;28;20029;-61
2022/11/19 10:32:58;;;;;;;4.75;0.17;;;;;;;8.48;100.00;100591.84;5042917;28;20021;-59
2022/11/19 10:35:32;;;;;;;2.92;0.20;;;;;;;8.60;100.00;100597.56;5035414;28;20030;-61
2022/11/19 10:38:03;;;;;;;3.10;0.98;;;;;;;8.70;100.00;100603.44;5047124;28;20029;-62
2022/11/19 10:40:43;;;;;;;2.53;0.68;;;;;;;8.73;100.00;100595.16;5034795;28;20418;-62
2022/11/19 10:43:27;;;;;;;3.38;0.20;;;;;;;8.70;100.00;100598.16;5038639;28;20025;-62
2022/11/19 10:45:55;;;;;;;5.53;1.20;;;;;;;8.59;100.00;100595.91;5049201;28;20061;-63
2022/11/19 10:48:23;;;;;;;2.90;0.57;;;;;;;8.61;100.00;100596.56;5039363;28;20033;-62
2022/11/19 10:50:50;;;;;;;6.95;0.57;;;;;;;8.58;100.00;100592.44;5039692;28;20025;-62
2022/11/19 10:53:18;;;;;;;5.05;0.88;;;;;;;8.73;100.00;100589.88;5050434;28;20025;-62
2022/11/19 10:55:54;;;;;;;4.20;0.70;;;;;;;9.01;100.00;100581.38;5038218;28;20068;-60
2022/11/19 10:58:27;;;;;;;5.30;2.13;;;;;;;9.17;100.00;100583.91;5030824;28;20075;-60
2022/11/19 11:00:55;;;;;;;2.15;0.22;;;;;;;9.08;100.00;100582.31;5046514;28;20031;-59
2022/11/19 11:03:44;;;;;;;5.32;0.38;;;;;;;9.29;100.00;100582.47;5039856;28;20071;-60
2022/11/19 11:06:10;;;;;;;2.03;0.47;;;;;;;9.48;100.00;100569.72;5042942;28;20409;-59
2022/11/19 11:08:54;;;;;;;5.63;0.85;;;;;;;9.48;100.00;100562.59;5043661;28;20029;-58
2022/11/19 11:17:17;;;;;;;2.63;1.02;;;;;;;9.25;100.00;100570.59;5031142;28;20118;-58
2022/11/19 11:19:42;;;;;;;2.67;0.20;;;;;;;9.15;100.00;100570.84;5043480;28;20413;-59
2022/11/19 11:22:08;;;;;;;5.22;1.77;;;;;;;9.12;100.00;100573.84;5028767;28;20094;-60
2022/11/19 11:24:36;;;;;;;1.17;0.40;;;;;;;9.08;100.00;100574.38;5037009;28;20550;-58
2022/11/19 11:27:23;;;;;;;5.00;0.30;;;;;;;9.06;100.00;100563.16;5033433;28;20063;-60
2022/11/19 11:29:48;;;;;;;4.30;1.00;;;;;;;9.00;100.00;100572.63;5034475;28;20351;-60
2022/11/19 11:32:43;;;;;;;3.80;0.32;;;;;;;9.11;100.00;100566.09;5032184;28;20044;-60
2022/11/19 11:35:31;;;;;;;3.15;0.28;;;;;;;9.08;100.00;100569.09;5022394;28;20044;-62
2022/11/19 11:37:59;;;;;;;6.72;1.30;;;;;;;9.07;100.00;100570.09;5040448;28;20029;-62
2022/11/19 11:40:25;;;;;;;5.22;1.15;;;;;;;9.02;100.00;100561.88;5042423;28;20044;-58
2022/11/19 11:42:52;;;;;;;5.40;0.47;;;;;;;9.02;100.00;100567.16;5038721;28;20090;-60
2022/11/19 11:45:27;;;;;;;4.10;0.30;;;;;;;9.02;100.00;100569.81;5036676;28;20029;-59
2022/11/19 11:47:56;;;;;;;4.30;0.80;;;;;;;9.06;100.00;100569.28;5042254;28;20021;-61
2022/11/19 11:50:24;;;;;;;3.33;0.28;;;;;;;9.07;100.00;100568.28;5043306;28;20423;-60
2022/11/19 11:52:52;;;;;;;5.28;0.40;;;;;;;8.95;100.00;100570.50;5044914;28;20057;-62
2022/11/19 11:55:23;;;;;;;4.13;0.20;;;;;;;8.98;100.00;100565.88;5034789;28;20364;-56
2022/11/19 11:57:50;;;;;;;2.88;0.15;;;;;;;8.93;100.00;100575.19;5044367;28;20073;-59